Latest Coastal Weather Observations for Parndana

IDS60701

Issued at 1:05 pm CST Friday 25 April 2014 (issued every 10 minutes, with the page automatically refreshed every 10 minutes)

About coastal observations | Map of coastal stations | Coastal observations for SA | Marine services | Other Formats
Station Details ID: 022843 Name: PARNDANA CFS AWS Lat: -35.79 Lon: 137.25 Height: 165.0 m
Data from the previous 72 hours. | See also: Recent months at Parndana
Date/Time
CST
Temp

°C
Wind Pressure Rain
since 9am
mm
Weather Cloud Vis
km
Sea
Height
m
Swell
Dir
 
Speed
knots
Gust
knots
hPa Trend Height
m
Period
s
Dir
25/01:00pm 19.1 NNW 10 18 - - 0.0 - - - - - - -
25/12:30pm 18.6 N 12 17 - - 0.0 - - - - - - -
25/12:00pm 18.5 N 12 17 - - 0.0 - - - - - - -
25/11:30am 18.3 N 12 17 - - 0.0 - - - - - - -
25/11:00am 18.4 N 15 22 - - 0.0 - - - - - - -
25/10:30am 18.6 N 10 15 - - 0.0 - - - - - - -
25/10:00am 17.1 N 9 13 - - 0.0 - - - - - - -
25/09:30am 15.5 N 6 7 - - 0.0 - - - - - - -
25/09:00am 12.9 N 4 7 - - 0.2 - - - - - - -
25/08:30am 12.0 N 4 6 - - 0.2 - - - - - - -
25/08:00am 10.3 N 4 5 - - 0.2 - - - - - - -
25/07:30am 9.6 N 5 6 - - 0.2 - - - - - - -
25/07:00am 8.1 N 6 6 - - 0.2 - - - - - - -
25/06:30am 9.1 N 4 5 - - 0.2 - - - - - - -
25/06:00am 8.7 NE 3 3 - - 0.2 - - - - - - -
25/05:30am 8.8 NE 4 4 - - 0.2 - - - - - - -
25/05:00am 8.3 NE 3 4 - - 0.2 - - - - - - -
25/04:30am 7.4 NNE 3 4 - - 0.2 - - - - - - -
25/04:00am 7.0 NNE 3 3 - - 0.2 - - - - - - -
25/03:30am 7.5 NNE 3 3 - - 0.2 - - - - - - -
25/03:00am 6.2 E 2 2 - - 0.2 - - - - - - -
25/02:30am 5.5 E 2 3 - - 0.2 - - - - - - -
25/02:00am 8.1 ENE 2 3 - - 0.2 - - - - - - -
25/01:30am 8.7 ENE 4 5 - - 0.2 - - - - - - -
25/01:00am 7.7 ENE 5 5 - - 0.2 - - - - - - -
25/12:30am 7.7 ENE 5 5 - - 0.2 - - - - - - -
25/12:00am 7.9 ENE 4 5 - - 0.2 - - - - - - -
 
Date/Time
CST
Temp

°C
Wind Pressure Rain
since 9am
mm
Weather Cloud Vis
km
Sea
Height
m
Swell
Dir
 
Speed
knots
Gust
knots
hPa Trend Height
m
Period
s
Dir
24/11:30pm 7.7 ENE 3 4 - - 0.2 - - - - - - -
24/11:00pm 8.2 NE 4 4 - - 0.2 - - - - - - -
24/10:30pm 7.9 ENE 3 4 - - 0.2 - - - - - - -
24/10:00pm 8.7 E 4 5 - - 0.2 - - - - - - -
24/09:30pm 8.0 ESE 3 4 - - 0.2 - - - - - - -
24/09:00pm 9.0 ESE 5 6 - - 0.2 - - - - - - -
24/08:30pm 8.3 SE 5 6 - - 0.2 - - - - - - -
24/08:00pm 8.2 SSE 5 6 - - 0.2 - - - - - - -
24/07:30pm 8.9 SSE 4 5 - - 0.2 - - - - - - -
24/07:00pm 10.2 SE 6 7 - - 0.2 - - - - - - -
24/06:30pm 10.0 ESE 5 6 - - 0.2 - - - - - - -
24/06:00pm 11.6 E 6 8 - - 0.2 - - - - - - -
24/05:30pm 13.4 ESE 8 11 - - 0.2 - - - - - - -
24/05:00pm 14.5 SE 7 10 - - 0.2 - - - - - - -
24/04:30pm 15.1 SSE 9 12 - - 0.2 - - - - - - -
24/04:00pm 15.9 SE 8 12 - - 0.2 - - - - - - -
24/03:30pm 16.3 SE 11 12 - - 0.2 - - - - - - -
24/03:00pm 16.5 S 5 8 - - 0.2 - - - - - - -
24/02:30pm 16.4 S 9 13 - - 0.2 - - - - - - -
24/02:00pm 16.3 S 6 11 - - 0.2 - - - - - - -
24/01:30pm 16.8 S 7 11 - - 0.2 - - - - - - -
24/01:00pm 17.0 SSE 4 9 - - 0.2 - - - - - - -
24/12:30pm 15.8 SSE 8 13 - - 0.2 - - - - - - -
24/12:00pm 15.7 SSE 7 10 - - 0.2 - - - - - - -
24/11:30am 16.3 SSE 9 14 - - 0.2 - - - - - - -
24/11:00am 15.7 S 10 13 - - 0.2 - - - - - - -
24/10:30am 15.2 SSE 13 18 - - 0.2 - - - - - - -
24/10:00am 15.1 S 12 16 - - 0.2 - - - - - - -
24/09:30am 14.5 S 14 18 - - 0.0 - - - - - - -
24/09:00am 14.5 S 11 15 - - 1.0 - - - - - - -
24/08:30am 13.9 S 11 15 - - 1.0 - - - - - - -
24/08:00am 13.3 S 7 8 - - 1.0 - - - - - - -
24/07:30am 13.0 S 6 8 - - 1.0 - - - - - - -
24/07:00am 12.8 S 7 10 - - 1.0 - - - - - - -
24/06:30am 12.9 S 8 12 - - 1.0 - - - - - - -
24/06:00am 12.9 SSW 8 13 - - 1.0 Recent precip. - - - - - -
24/05:30am 13.4 SSW 9 18 - - 0.8 - - - - - - -
24/05:00am 13.4 SSW 7 10 - - 0.8 - - - - - - -
24/04:30am 13.8 SW 8 10 - - 0.8 - - - - - - -
24/04:00am 13.9 WSW 9 13 - - 0.6 - - - - - - -
24/03:30am 13.9 WSW 9 13 - - 0.6 - - - - - - -
24/03:00am 13.2 W 8 9 - - 0.6 - - - - - - -
24/02:30am 12.9 W 6 9 - - 0.6 - - - - - - -
24/02:00am 13.4 WNW 8 11 - - 0.6 - - - - - - -
24/01:30am 12.7 WNW 8 9 - - 0.6 - - - - - - -
24/01:00am 12.8 NW 9 11 - - 0.6 - - - - - - -
24/12:30am 12.5 WNW 8 10 - - 0.6 - - - - - - -
24/12:00am 12.3 NW 7 9 - - 0.6 - - - - - - -
 
Date/Time
CST
Temp

°C
Wind Pressure Rain
since 9am
mm
Weather Cloud Vis
km
Sea
Height
m
Swell
Dir
 
Speed
knots
Gust
knots
hPa Trend Height
m
Period
s
Dir
23/11:30pm 12.4 WNW 7 10 - - 0.6 - - - - - - -
23/11:00pm 12.1 NW 7 10 - - 0.6 - - - - - - -
23/10:30pm 12.4 NW 7 9 - - 0.6 - - - - - - -
23/10:00pm 12.3 NNW 6 7 - - 0.6 - - - - - - -
23/09:30pm 13.2 NNW 6 7 - - 0.6 - - - - - - -
23/09:00pm 13.6 NNW 5 6 - - 0.6 Recent precip. - - - - - -
23/08:30pm 13.8 NW 7 10 - - 0.4 - - - - - - -
23/08:00pm 13.7 WNW 7 10 - - 0.4 - - - - - - -
23/07:30pm 13.6 NW 8 11 - - 0.4 - - - - - - -
23/07:00pm 13.4 WNW 10 16 - - 0.4 - - - - - - -
23/06:30pm 13.6 WNW 9 12 - - 0.2 - - - - - - -
23/06:12pm 14.2 NW 15 23 - - 0.0 - - - - - - -
23/06:00pm 15.4 NNW 9 11 - - 0.0 - - - - - - -
23/05:30pm 15.3 NW 9 12 - - 0.0 - - - - - - -
23/05:00pm 16.0 NW 10 14 - - 0.0 - - - - - - -
23/04:30pm 17.1 NW 14 19 - - 0.0 - - - - - - -
23/04:00pm 17.5 NNW 13 18 - - 0.0 - - - - - - -
23/03:30pm 17.9 NW 12 14 - - 0.0 - - - - - - -
23/03:00pm 18.3 NW 13 16 - - 0.0 - - - - - - -
23/02:30pm 17.4 NNW 11 16 - - 0.0 - - - - - - -
23/02:00pm 18.4 NNW 11 16 - - 0.0 - - - - - - -
23/01:30pm 19.3 NW 11 17 - - 0.0 - - - - - - -
23/01:00pm 18.6 NNW 12 18 - - 0.0 - - - - - - -
23/12:30pm 18.5 NNW 11 17 - - 0.0 - - - - - - -
23/12:00pm 18.4 NW 11 17 - - 0.0 - - - - - - -
23/11:30am 17.4 NNW 13 19 - - 0.0 - - - - - - -
23/11:00am 16.9 NW 12 17 - - 0.0 - - - - - - -
23/10:30am 17.0 NNW 13 18 - - 0.0 - - - - - - -
23/10:00am 15.9 NNW 10 13 - - 0.0 - - - - - - -
23/09:30am 15.1 NNW 7 10 - - 0.0 - - - - - - -
23/09:00am 13.9 NNW 4 6 - - 0.2 - - - - - - -
23/08:30am 11.2 NW 4 5 - - 0.2 - - - - - - -
23/08:00am 10.1 NW 5 6 - - 0.2 - - - - - - -
23/07:30am 8.9 NW 5 6 - - 0.2 - - - - - - -
23/07:00am 7.2 NW 4 5 - - 0.0 - - - - - - -
23/06:30am 7.7 N 3 3 - - 0.0 - - - - - - -
23/06:00am 5.6 NNW 2 3 - - 0.0 - - - - - - -
23/05:30am 6.1 NNW 4 4 - - 0.0 - - - - - - -
23/05:00am 7.4 NNW 4 4 - - 0.0 - - - - - - -
23/04:30am 7.8 NNW 3 4 - - 0.0 - - - - - - -
23/04:00am 7.2 NW 4 4 - - 0.0 - - - - - - -
23/03:30am 6.4 WNW 5 6 - - 0.0 - - - - - - -
23/03:00am 6.2 WNW 4 4 - - 0.0 - - - - - - -
23/02:30am 7.4 WNW 4 5 - - 0.0 - - - - - - -
23/02:00am 6.6 NW 5 6 - - 0.0 - - - - - - -
23/01:30am 5.7 NNW 3 4 - - 0.0 - - - - - - -
23/01:00am 7.1 N 2 2 - - 0.0 - - - - - - -
23/12:30am 7.7 NW 2 2 - - 0.0 - - - - - - -
23/12:00am 8.1 NNW 4 5 - - 0.0 - - - - - - -
 
Date/Time
CST
Temp

°C
Wind Pressure Rain
since 9am
mm
Weather Cloud Vis
km
Sea
Height
m
Swell
Dir
 
Speed
knots
Gust
knots
hPa Trend Height
m
Period
s
Dir
22/11:30pm 7.2 NNW 4 5 - - 0.0 - - - - - - -
22/11:00pm 7.0 NW 3 3 - - 0.0 - - - - - - -
22/10:30pm 9.1 W 4 5 - - 0.0 - - - - - - -
22/10:00pm 8.6 W 4 5 - - 0.0 - - - - - - -
22/09:30pm 9.0 WSW 4 4 - - 0.0 - - - - - - -
22/09:00pm 8.3 WSW 4 4 - - 0.0 - - - - - - -
22/08:30pm 10.0 WSW 3 4 - - 0.0 - - - - - - -
22/08:00pm 10.4 SW 2 3 - - 0.0 - - - - - - -
22/07:30pm 9.8 SW 4 4 - - 0.0 - - - - - - -
22/07:00pm 11.0 SSW 3 4 - - 0.0 - - - - - - -
22/06:30pm 11.4 SSW 3 3 - - 0.0 - - - - - - -
22/06:00pm 12.1 SSW 4 4 - - 0.0 - - - - - - -
22/05:30pm 13.4 S 4 6 - - 0.0 - - - - - - -
22/05:00pm 14.6 S 7 9 - - 0.0 - - - - - - -
22/04:30pm 15.0 S 8 13 - - 0.0 - - - - - - -
22/04:00pm 15.9 S 12 15 - - 0.0 - - - - - - -
22/03:30pm 16.0 S 11 14 - - 0.0 - - - - - - -
22/03:00pm 17.0 S 10 14 - - 0.0 - - - - - - -
22/02:30pm 17.0 SSW 9 13 - - 0.0 - - - - - - -
22/02:00pm 17.5 S 10 14 - - 0.0 - - - - - - -
22/01:30pm 17.3 SSW 9 13 - - 0.0 - - - - - - -

Other Formats:

Comma delimited format used in spreadsheet applications
http://www.bom.gov.au/fwo/IDS60701/IDS60701.94807.axf

JavaScript Object Notation format (JSON) in row-major order
http://www.bom.gov.au/fwo/IDS60701/IDS60701.94807.json